Time;durP1;ratioP1;P1;durP2;ratioP2;P2;SDS_P1;SDS_P2;PMS_P1;PMS_P2;Temp;Humidity;BMP_temperature;BMP_pressure;BME280_temperature;BME280_humidity;BME280_pressure;Samples;Min_cycle;Max_cycle;Signal;HPM_P1;HPM_P2
2023/11/16 00:00:12;;;;;;;5.03;2.80;;;230.50;2252.80;;;;;;5032735;28;20361;-61
2023/11/16 00:02:42;;;;;;;7.35;3.35;;;230.50;2252.80;;;;;;5050906;28;20045;-60
2023/11/16 00:05:16;;;;;;;5.47;3.60;;;230.50;2252.80;;;;;;5049243;28;20040;-61
2023/11/16 00:07:47;;;;;;;6.20;4.70;;;230.40;2252.80;;;;;;5048777;28;20493;-60
2023/11/16 00:10:16;;;;;;;6.72;3.70;;;205.70;2252.80;;;;;;5051358;28;20143;-60
2023/11/16 00:12:42;;;;;;;6.60;3.20;;;205.60;2252.80;;;;;;5048848;28;20088;-60
2023/11/16 00:15:09;;;;;;;8.75;4.55;;;205.60;2252.80;;;;;;5051293;28;20104;-61
2023/11/16 00:17:38;;;;;;;8.50;5.55;;;205.60;2252.80;;;;;;5051473;28;20028;-60
2023/11/16 00:20:06;;;;;;;8.40;5.35;;;205.50;2252.80;;;;;;5048807;28;20082;-60
2023/11/16 00:22:32;;;;;;;9.35;5.15;;;205.50;2252.80;;;;;;5050867;28;20029;-61
2023/11/16 00:24:58;;;;;;;8.32;4.10;;;205.60;2252.80;;;;;;5051112;28;20029;-60
2023/11/16 00:27:26;;;;;;;7.03;4.35;;;205.70;2252.80;;;;;;5050925;28;20475;-60
2023/11/16 00:29:52;;;;;;;6.85;5.00;;;205.70;2252.80;;;;;;5048076;28;20024;-59
2023/11/16 00:32:18;;;;;;;10.90;5.03;;;230.40;2252.80;;;;;;5051240;28;20116;-61
2023/11/16 00:34:44;;;;;;;7.10;4.45;;;230.40;2252.80;;;;;;5033676;28;20418;-61
2023/11/16 00:37:10;;;;;;;7.47;4.38;;;230.50;2252.80;;;;;;5051924;28;20028;-60
2023/11/16 00:39:38;;;;;;;7.25;3.65;;;230.50;2252.80;;;;;;5050961;28;20021;-59
2023/11/16 00:42:05;;;;;;;3.85;2.45;;;230.50;2252.80;;;;;;5051375;28;20049;-63
2023/11/16 00:44:31;;;;;;;4.90;2.35;;;230.60;2252.80;;;;;;5048198;28;20070;-60
2023/11/16 00:46:57;;;;;;;4.22;2.13;;;230.60;2252.80;;;;;;5051078;28;20021;-58
2023/11/16 00:49:23;;;;;;;3.20;1.95;;;230.60;2252.80;;;;;;5050576;28;20032;-61
2023/11/16 00:51:52;;;;;;;5.57;2.75;;;230.60;2252.80;;;;;;5056272;28;20025;-58
2023/11/16 00:54:22;;;;;;;3.50;2.20;;;230.60;2252.80;;;;;;5061707;28;20032;-59
2023/11/16 00:56:48;;;;;;;5.35;3.15;;;230.60;2252.80;;;;;;5058000;28;20540;-59
2023/11/16 00:59:14;;;;;;;5.00;2.80;;;230.60;2252.80;;;;;;5059924;28;20034;-58
2023/11/16 01:01:40;;;;;;;7.32;2.78;;;230.60;2252.80;;;;;;5056923;28;20058;-60
2023/11/16 01:04:11;;;;;;;6.20;3.35;;;230.60;2252.80;;;;;;5050393;28;20033;-59
2023/11/16 01:06:39;;;;;;;6.00;3.95;;;230.60;2252.80;;;;;;5047817;28;20032;-61
2023/11/16 01:09:08;;;;;;;6.07;3.97;;;230.60;2252.80;;;;;;5050520;28;20078;-61
2023/11/16 01:11:36;;;;;;;8.10;4.35;;;230.70;2252.80;;;;;;5050208;28;20438;-59
2023/11/16 01:14:02;;;;;;;5.05;3.10;;;230.70;2252.80;;;;;;5049391;28;20102;-60
2023/11/16 01:16:40;;;;;;;4.97;2.92;;;230.70;2252.80;;;;;;5051764;28;20056;-59
2023/11/16 01:19:08;;;;;;;6.38;3.58;;;230.70;2252.80;;;;;;5056656;28;20030;-60
2023/11/16 01:21:41;;;;;;;7.35;4.22;;;230.90;2252.80;;;;;;5059635;28;20024;-59
2023/11/16 01:24:11;;;;;;;5.40;4.28;;;230.80;2252.80;;;;;;5060154;28;20017;-59
2023/11/16 01:26:40;;;;;;;7.88;4.32;;;230.70;2252.80;;;;;;5051579;28;20033;-58
2023/11/16 01:29:16;;;;;;;5.95;4.20;;;230.90;2252.80;;;;;;5065040;28;20115;-60
2023/11/16 01:31:42;;;;;;;6.78;4.03;;;230.90;2252.80;;;;;;5049089;28;20047;-59
2023/11/16 01:34:10;;;;;;;6.30;3.80;;;230.90;2252.80;;;;;;5049833;28;20463;-59
2023/11/16 01:36:37;;;;;;;5.40;3.38;;;230.80;2252.80;;;;;;5049580;28;20039;-59
2023/11/16 01:39:04;;;;;;;4.38;2.95;;;230.90;2252.80;;;;;;5049294;28;20115;-60
2023/11/16 01:41:29;;;;;;;6.50;3.67;;;230.70;2252.80;;;;;;5049663;28;20009;-60
2023/11/16 01:43:56;;;;;;;6.13;3.95;;;230.60;2252.80;;;;;;5049690;28;20021;-58
2023/11/16 01:46:22;;;;;;;5.78;2.80;;;230.60;2252.80;;;;;;5049518;28;20128;-59
2023/11/16 01:48:49;;;;;;;5.57;3.60;;;230.70;2252.80;;;;;;5049533;28;20031;-59
2023/11/16 01:51:17;;;;;;;5.22;3.42;;;230.70;2252.80;;;;;;5049718;28;20107;-59
2023/11/16 01:54:02;;;;;;;7.10;4.47;;;230.60;2252.80;;;;;;5049430;28;20031;-60
2023/11/16 01:56:33;;;;;;;45.85;28.30;;;230.50;2252.80;;;;;;5049241;28;20090;-59
2023/11/16 01:59:01;;;;;;;32.97;20.00;;;230.50;2252.80;;;;;;5049368;28;20375;-59
2023/11/16 02:01:34;;;;;;;21.05;14.00;;;230.40;2252.80;;;;;;5048903;28;20074;-59
2023/11/16 02:04:04;;;;;;;13.57;7.10;;;205.70;2252.80;;;;;;5048660;28;20585;-60
2023/11/16 02:06:30;;;;;;;7.40;6.05;;;205.50;2252.80;;;;;;5047124;28;20703;-60
2023/11/16 02:08:56;;;;;;;7.78;5.60;;;205.30;2252.80;;;;;;5049912;28;20083;-59
2023/11/16 02:11:22;;;;;;;8.63;4.32;;;205.20;2252.80;;;;;;5049552;28;20025;-59
2023/11/16 02:13:50;;;;;;;6.75;4.40;;;205.00;2252.80;;;;;;5049856;28;20028;-59
2023/11/16 02:16:15;;;;;;;5.60;3.28;;;205.00;2252.80;;;;;;5049691;28;20033;-58
2023/11/16 02:18:41;;;;;;;6.03;4.10;;;204.90;2252.80;;;;;;5049792;28;20032;-60
2023/11/16 02:21:07;;;;;;;5.97;4.15;;;205.00;2252.80;;;;;;5049340;28;20033;-60
2023/11/16 02:23:33;;;;;;;8.38;7.47;;;204.90;2252.80;;;;;;5051993;28;20017;-60
2023/11/16 02:25:59;;;;;;;6.15;4.68;;;204.80;2252.80;;;;;;5051414;28;20033;-60
2023/11/16 02:28:25;;;;;;;7.28;5.00;;;180.10;1868.80;;;;;;5050716;28;20051;-59
2023/11/16 02:30:52;;;;;;;10.75;6.38;;;180.10;2252.80;;;;;;5049380;28;20530;-59
2023/11/16 02:33:21;;;;;;;8.50;5.20;;;180.00;2252.80;;;;;;5049670;28;20021;-60
2023/11/16 02:35:48;;;;;;;4.32;2.40;;;180.00;2252.80;;;;;;5049388;28;20108;-60
2023/11/16 02:38:16;;;;;;;7.90;4.07;;;204.80;2252.80;;;;;;5049278;28;20025;-60
2023/11/16 02:40:42;;;;;;;7.75;2.88;;;205.00;2252.80;;;;;;5049263;28;20029;-60
2023/11/16 02:43:08;;;;;;;3.33;2.05;;;205.10;2252.80;;;;;;5049454;28;20017;-60
2023/11/16 02:45:34;;;;;;;5.95;4.07;;;205.10;2252.80;;;;;;5048937;28;20035;-60
2023/11/16 02:48:00;;;;;;;5.85;3.33;;;205.00;2252.80;;;;;;5049655;28;20100;-59
2023/11/16 02:50:27;;;;;;;3.92;2.50;;;205.00;2252.80;;;;;;5049440;28;20131;-59
2023/11/16 02:52:53;;;;;;;5.18;2.90;;;204.90;2252.80;;;;;;5049159;28;20040;-60
2023/11/16 02:55:25;;;;;;;2.88;1.85;;;204.90;2252.80;;;;;;5049377;28;20021;-60
2023/11/16 02:57:57;;;;;;;4.28;2.15;;;205.30;2252.80;;;;;;5049151;28;20028;-60
2023/11/16 03:00:24;;;;;;;3.00;1.70;;;205.10;2252.80;;;;;;5048822;28;20041;-60
2023/11/16 03:02:50;;;;;;;2.63;1.67;;;205.10;2252.80;;;;;;5049135;28;20131;-60
2023/11/16 03:05:21;;;;;;;2.08;1.15;;;205.20;2252.80;;;;;;5049103;28;20029;-60
2023/11/16 03:07:50;;;;;;;2.88;1.50;;;205.30;2252.80;;;;;;5049264;28;20028;-60
2023/11/16 03:10:16;;;;;;;2.45;1.40;;;205.40;2252.80;;;;;;5049218;28;20033;-59
2023/11/16 03:12:44;;;;;;;2.70;1.38;;;205.50;2252.80;;;;;;5049355;28;20230;-60
2023/11/16 03:15:10;;;;;;;2.88;1.50;;;205.40;2252.80;;;;;;5049550;28;20017;-60
2023/11/16 03:17:39;;;;;;;3.33;1.95;;;205.30;2252.80;;;;;;5049243;28;20027;-60
2023/11/16 03:20:05;;;;;;;5.13;2.20;;;205.20;2252.80;;;;;;5048910;28;20368;-60
2023/11/16 03:22:31;;;;;;;3.83;2.30;;;205.20;2252.80;;;;;;5048941;28;20033;-60
2023/11/16 03:24:57;;;;;;;5.75;2.92;;;205.10;2252.80;;;;;;5048798;28;20139;-59
2023/11/16 03:27:23;;;;;;;7.50;3.13;;;205.10;2252.80;;;;;;5048881;28;20112;-59
2023/11/16 03:29:49;;;;;;;4.95;3.00;;;205.10;2252.80;;;;;;5048967;28;20025;-59
2023/11/16 03:32:15;;;;;;;4.50;2.60;;;205.10;2252.80;;;;;;5048721;28;20033;-59
2023/11/16 03:34:41;;;;;;;9.88;4.35;;;205.10;2252.80;;;;;;5048724;28;20379;-61
2023/11/16 03:37:07;;;;;;;9.55;5.70;;;205.00;2252.80;;;;;;5051061;28;20033;-59
2023/11/16 03:39:33;;;;;;;6.20;3.63;;;205.00;2252.80;;;;;;5052467;28;20057;-60
2023/11/16 03:41:59;;;;;;;4.15;2.72;;;205.00;2252.80;;;;;;5052762;28;20033;-59
2023/11/16 03:44:28;;;;;;;6.43;2.15;;;204.90;2252.80;;;;;;5052310;28;20025;-60
2023/11/16 03:46:54;;;;;;;3.28;2.17;;;204.80;2252.80;;;;;;5052171;28;20115;-59
2023/11/16 03:49:21;;;;;;;3.78;2.25;;;204.80;2252.80;;;;;;5052547;28;20967;-59
2023/11/16 03:51:47;;;;;;;4.85;1.90;;;204.80;2252.80;;;;;;5052219;28;20032;-60
2023/11/16 03:54:15;;;;;;;3.47;1.70;;;204.80;2252.80;;;;;;5052121;28;20021;-60
2023/11/16 03:56:41;;;;;;;9.77;1.80;;;204.80;2252.80;;;;;;5052265;28;20028;-59
2023/11/16 03:59:07;;;;;;;3.38;1.77;;;204.80;2252.80;;;;;;5052351;28;20102;-60
2023/11/16 04:01:37;;;;;;;3.03;1.70;;;180.00;2252.80;;;;;;5051471;28;20041;-62
2023/11/16 04:04:03;;;;;;;2.75;1.70;;;180.00;2252.80;;;;;;5051783;28;20112;-59
2023/11/16 04:06:29;;;;;;;3.08;1.70;;;180.10;2252.80;;;;;;5052070;28;20446;-61
2023/11/16 04:08:56;;;;;;;3.88;2.25;;;180.00;2252.80;;;;;;5051808;28;20052;-60
2023/11/16 04:11:23;;;;;;;4.15;3.05;;;180.10;2252.80;;;;;;5051706;28;20533;-60
2023/11/16 04:13:48;;;;;;;7.32;5.78;;;180.00;2252.80;;;;;;5051999;28;20021;-60
2023/11/16 04:16:21;;;;;;;6.97;3.17;;;180.00;2252.80;;;;;;5051729;28;20382;-59
2023/11/16 04:18:49;;;;;;;4.05;2.47;;;179.80;2252.80;;;;;;5052062;28;20379;-60
2023/11/16 04:21:19;;;;;;;4.00;2.30;;;179.70;2252.80;;;;;;5051876;28;20040;-59
2023/11/16 04:23:52;;;;;;;3.28;2.50;;;179.60;2252.80;;;;;;5051914;28;20021;-60
2023/11/16 04:26:21;;;;;;;4.03;2.30;;;179.50;2252.80;;;;;;5051765;28;20033;-59
2023/11/16 04:28:48;;;;;;;4.45;2.72;;;179.70;2252.80;;;;;;5051742;28;20040;-60
2023/11/16 04:31:15;;;;;;;4.38;2.55;;;179.60;2252.80;;;;;;5051238;28;20574;-60
2023/11/16 04:33:42;;;;;;;3.47;2.08;;;179.40;2252.80;;;;;;5051494;28;20032;-61
2023/11/16 04:36:08;;;;;;;3.97;2.55;;;179.40;2252.80;;;;;;5033373;28;20083;-59
2023/11/16 04:38:34;;;;;;;5.75;2.88;;;179.60;2252.80;;;;;;5051498;28;20021;-61
2023/11/16 04:41:02;;;;;;;5.97;3.67;;;179.40;2252.80;;;;;;5051283;28;20475;-60
2023/11/16 04:43:30;;;;;;;6.00;3.00;;;179.30;2252.80;;;;;;5051344;28;20035;-60
2023/11/16 04:45:56;;;;;;;7.28;3.38;;;179.30;1894.40;;;;;;5050990;28;20163;-61
2023/11/16 04:48:22;;;;;;;5.90;3.85;;;179.30;2252.80;;;;;;5050248;28;20032;-60
2023/11/16 04:50:50;;;;;;;11.23;4.88;;;179.20;2252.80;;;;;;5051366;28;20025;-59
2023/11/16 04:53:15;;;;;;;11.30;8.77;;;179.30;2252.80;;;;;;5051626;28;20025;-59
2023/11/16 04:55:41;;;;;;;4.03;2.75;;;179.20;2252.80;;;;;;5050942;28;20491;-60
2023/11/16 04:58:07;;;;;;;3.75;2.20;;;179.30;2252.80;;;;;;5051310;28;20028;-60
2023/11/16 05:00:33;;;;;;;8.70;5.65;;;179.20;2252.80;;;;;;5050860;28;20111;-59
2023/11/16 05:02:58;;;;;;;5.60;3.67;;;179.20;2252.80;;;;;;5050906;28;20110;-61
2023/11/16 05:05:24;;;;;;;6.32;3.58;;;179.30;2252.80;;;;;;5050732;28;20430;-59
2023/11/16 05:07:50;;;;;;;6.63;3.90;;;179.20;2252.80;;;;;;5051009;28;20087;-60
2023/11/16 05:10:16;;;;;;;5.10;3.00;;;154.50;2252.80;;;;;;5050954;28;20029;-60
2023/11/16 05:12:45;;;;;;;5.15;3.35;;;179.20;2252.80;;;;;;5050981;28;20067;-60
2023/11/16 05:15:11;;;;;;;5.60;2.72;;;179.20;2252.80;;;;;;5050460;28;20032;-59
2023/11/16 05:17:37;;;;;;;4.35;2.78;;;154.50;2252.80;;;;;;5050871;28;20037;-60
2023/11/16 05:20:04;;;;;;;3.35;2.30;;;154.50;2252.80;;;;;;5050621;28;20479;-60
2023/11/16 05:22:29;;;;;;;9.95;7.35;;;154.50;2252.80;;;;;;5050948;28;20025;-61
2023/11/16 05:24:55;;;;;;;12.15;10.80;;;179.20;2252.80;;;;;;5050632;28;20043;-59
2023/11/16 05:27:21;;;;;;;7.70;6.60;;;179.30;2252.80;;;;;;5050389;28;20490;-61
2023/11/16 05:29:46;;;;;;;48.65;26.98;;;179.30;2252.80;;;;;;5052259;28;20033;-60
2023/11/16 05:32:12;;;;;;;14.75;8.40;;;179.40;2252.80;;;;;;5051171;28;20059;-62
2023/11/16 05:34:38;;;;;;;11.32;7.18;;;179.40;2252.80;;;;;;5050820;28;20475;-59
2023/11/16 05:37:04;;;;;;;9.80;4.25;;;179.50;2252.80;;;;;;5050448;28;20025;-60
2023/11/16 05:39:30;;;;;;;8.05;4.28;;;179.50;2252.80;;;;;;5050307;28;20060;-60
2023/11/16 05:41:56;;;;;;;7.07;4.07;;;179.60;2252.80;;;;;;5049827;28;20502;-62
2023/11/16 05:44:22;;;;;;;8.52;5.05;;;179.50;2252.80;;;;;;5047922;28;20032;-60
2023/11/16 05:46:48;;;;;;;74.78;41.95;;;179.40;2252.80;;;;;;5048525;28;20033;-59
2023/11/16 05:49:15;;;;;;;58.17;33.08;;;179.30;2252.80;;;;;;5048426;28;20400;-60
2023/11/16 05:51:41;;;;;;;61.72;42.75;;;179.40;2252.80;;;;;;5048202;28;20032;-61
2023/11/16 05:54:07;;;;;;;33.17;21.08;;;179.40;2252.80;;;;;;5063597;28;20044;-59
2023/11/16 05:56:42;;;;;;;54.85;33.88;;;179.40;2252.80;;;;;;5048123;28;20047;-61
2023/11/16 05:59:11;;;;;;;48.83;38.55;;;179.50;2252.80;;;;;;5048683;28;20021;-62
2023/11/16 06:01:44;;;;;;;24.15;17.80;;;179.60;2252.80;;;;;;5048310;28;20048;-60
2023/11/16 06:04:10;;;;;;;46.97;40.58;;;179.60;2252.80;;;;;;5046143;28;20029;-61
2023/11/16 06:06:36;;;;;;;16.50;12.23;;;179.70;2252.80;;;;;;5048593;28;20444;-62
2023/11/16 06:09:03;;;;;;;14.25;11.05;;;179.70;2252.80;;;;;;5048060;28;20470;-61
2023/11/16 06:11:29;;;;;;;22.08;17.75;;;179.80;2252.80;;;;;;5048237;28;20229;-62
2023/11/16 06:13:56;;;;;;;46.35;32.60;;;179.90;2252.80;;;;;;5048148;28;20487;-61
2023/11/16 06:16:24;;;;;;;29.98;24.45;;;179.90;2252.80;;;;;;5047033;28;20025;-60
2023/11/16 06:18:50;;;;;;;39.75;26.23;;;179.90;2252.80;;;;;;5048407;28;20078;-59
2023/11/16 06:21:16;;;;;;;89.57;56.88;;;179.90;2252.80;;;;;;5048078;28;20025;-59
2023/11/16 06:23:42;;;;;;;53.65;28.25;;;180.00;2252.80;;;;;;5047567;28;20120;-62
2023/11/16 06:26:08;;;;;;;49.03;29.20;;;180.00;2252.80;;;;;;5048080;28;20033;-61
2023/11/16 06:28:37;;;;;;;50.17;32.25;;;180.00;2252.80;;;;;;5047950;28;20040;-62
2023/11/16 06:31:04;;;;;;;42.92;30.30;;;180.00;2252.80;;;;;;5047648;28;20036;-61
2023/11/16 06:33:30;;;;;;;32.97;22.73;;;180.10;2252.80;;;;;;5063240;28;20025;-60
2023/11/16 06:35:56;;;;;;;12.35;9.75;;;180.10;2252.80;;;;;;5047650;28;20029;-60
2023/11/16 06:38:22;;;;;;;9.98;6.65;;;204.80;2252.80;;;;;;5047851;28;20486;-59
2023/11/16 06:40:48;;;;;;;33.80;21.10;;;180.10;2252.80;;;;;;5048028;28;20029;-61
2023/11/16 06:43:15;;;;;;;47.10;27.02;;;204.80;2252.80;;;;;;5048152;28;20501;-61
2023/11/16 06:45:41;;;;;;;32.58;20.25;;;204.90;2252.80;;;;;;5047718;28;20040;-61
2023/11/16 06:48:10;;;;;;;17.83;14.25;;;204.90;2252.80;;;;;;5048015;28;20113;-61
2023/11/16 06:50:38;;;;;;;14.38;10.73;;;204.90;2252.80;;;;;;5047804;28;20040;-61
2023/11/16 06:53:09;;;;;;;16.80;13.20;;;205.00;2252.80;;;;;;5047879;28;20480;-61
2023/11/16 06:55:36;;;;;;;52.45;37.90;;;205.00;2252.80;;;;;;5047772;28;20079;-60
2023/11/16 06:58:07;;;;;;;56.63;39.60;;;205.20;2252.80;;;;;;5047885;28;20021;-60
2023/11/16 07:00:36;;;;;;;23.05;16.05;;;205.20;2252.80;;;;;;5047453;28;20449;-61
2023/11/16 07:03:03;;;;;;;27.00;18.40;;;205.20;2252.80;;;;;;5047555;28;20135;-60
2023/11/16 07:05:30;;;;;;;26.73;19.02;;;205.10;2252.80;;;;;;5048021;28;20095;-60
2023/11/16 07:07:56;;;;;;;24.83;13.70;;;205.20;2252.80;;;;;;5047779;28;20441;-61
2023/11/16 07:10:22;;;;;;;31.35;20.40;;;205.20;2252.80;;;;;;5047746;28;20029;-63
2023/11/16 07:12:48;;;;;;;27.27;19.40;;;205.30;2252.80;;;;;;5052238;28;20024;-61
2023/11/16 07:15:14;;;;;;;13.27;8.90;;;205.30;2252.80;;;;;;5053373;28;20471;-61
2023/11/16 07:17:40;;;;;;;15.05;11.10;;;205.40;2252.80;;;;;;5053087;28;20104;-61
2023/11/16 07:20:13;;;;;;;11.82;7.72;;;205.40;2252.80;;;;;;5053144;28;20136;-61
2023/11/16 07:22:40;;;;;;;8.52;6.53;;;205.50;2252.80;;;;;;5053153;28;20104;-60
2023/11/16 07:25:07;;;;;;;10.95;7.55;;;205.60;2252.80;;;;;;5052927;28;20044;-60
2023/11/16 07:27:34;;;;;;;12.57;8.15;;;230.50;2252.80;;;;;;5052325;28;20029;-59
2023/11/16 07:30:00;;;;;;;10.45;6.80;;;230.90;2252.80;;;;;;5060439;28;20481;-60
2023/11/16 07:32:26;;;;;;;25.13;18.17;;;231.20;2252.80;;;;;;5060684;28;20163;-60
2023/11/16 07:34:52;;;;;;;18.50;12.65;;;282.00;2278.40;;;;;;5063170;28;20025;-60
2023/11/16 07:37:17;;;;;;;20.85;14.15;;;307.70;2304.00;;;;;;5060418;28;20059;-60
2023/11/16 07:39:44;;;;;;;25.77;18.63;;;358.80;2329.60;;;;;;5050979;28;20047;-59
2023/11/16 07:42:11;;;;;;;25.25;20.15;;;384.90;2329.60;;;;;;5051794;28;20029;-60
2023/11/16 07:44:37;;;;;;;16.95;13.45;;;410.50;2355.20;;;;;;5051650;28;20017;-60
2023/11/16 07:47:03;;;;;;;12.13;10.32;;;435.30;2355.20;;;;;;5051006;28;20029;-59
2023/11/16 07:49:32;;;;;;;9.20;8.15;;;435.90;2355.20;;;;;;5053490;28;20036;-60
2023/11/16 07:51:58;;;;;;;13.23;11.80;;;436.00;2329.60;;;;;;5050393;28;20035;-59
2023/11/16 07:54:23;;;;;;;13.20;10.45;;;461.20;2304.00;;;;;;5054431;28;20033;-62
2023/11/16 07:56:52;;;;;;;15.60;12.60;;;486.70;2227.20;;;;;;5051419;28;20082;-62
2023/11/16 07:59:30;;;;;;;29.45;25.33;;;512.50;2099.20;;;;;;5052048;28;20049;-62
2023/11/16 08:01:56;;;;;;;23.13;20.20;;;537.90;2048.00;;;;;;5051393;28;20143;-61
2023/11/16 08:04:25;;;;;;;17.67;15.82;;;538.50;2022.40;;;;;;5051773;28;20104;-66
2023/11/16 08:06:55;;;;;;;18.73;16.88;;;564.00;1945.60;;;;;;5051867;28;20040;-67
2023/11/16 08:09:24;;;;;;;26.67;24.05;;;589.70;1843.20;;;;;;5051855;28;20025;-66
2023/11/16 08:11:53;;;;;;;24.42;22.23;;;615.30;1740.80;;;;;;5051867;28;20456;-68
2023/11/16 08:14:22;;;;;;;15.93;14.32;;;640.50;1689.60;;;;;;5051635;28;20040;-65
2023/11/16 08:16:49;;;;;;;13.70;12.40;;;665.80;1689.60;;;;;;5052038;28;20047;-66
2023/11/16 08:19:15;;;;;;;11.07;10.07;;;665.70;1689.60;;;;;;5051830;28;20028;-67
2023/11/16 08:21:41;;;;;;;11.80;9.77;;;640.80;1664.00;;;;;;5051764;28;20029;-68
2023/11/16 08:24:10;;;;;;;11.68;9.75;;;666.20;1664.00;;;;;;5051556;28;20098;-68
2023/11/16 08:26:37;;;;;;;11.60;10.40;;;691.40;1587.20;;;;;;5051413;28;20072;-67
2023/11/16 08:29:02;;;;;;;13.20;12.00;;;640.80;1638.40;;;;;;5051855;28;20075;-68
2023/11/16 08:31:29;;;;;;;10.48;9.10;;;640.80;1664.00;;;;;;5051439;28;20029;-67
2023/11/16 08:33:54;;;;;;;10.80;9.20;;;640.90;1638.40;;;;;;5051538;28;20376;-68
2023/11/16 08:36:20;;;;;;;13.02;11.73;;;666.20;1638.40;;;;;;5051651;28;20025;-68
2023/11/16 08:38:46;;;;;;;28.48;25.95;;;691.60;1587.20;;;;;;5051130;28;20025;-67
2023/11/16 08:41:17;;;;;;;49.75;45.13;;;716.80;1561.60;;;;;;5051131;28;20017;-67
2023/11/16 08:43:45;;;;;;;40.88;36.85;;;666.00;1664.00;;;;;;5051835;28;20029;-66
2023/11/16 08:46:20;;;;;;;40.65;36.85;;;640.30;1689.60;;;;;;5051473;28;20475;-68
2023/11/16 08:48:47;;;;;;;42.40;38.50;;;640.30;1689.60;;;;;;5052312;28;20029;-66
2023/11/16 08:51:15;;;;;;;35.35;32.08;;;640.60;1689.60;;;;;;5050922;28;20033;-67
2023/11/16 08:53:46;;;;;;;33.28;30.05;;;666.00;1664.00;;;;;;5050672;28;20025;-67
2023/11/16 08:56:14;;;;;;;31.83;28.90;;;691.20;1638.40;;;;;;5063339;28;20040;-67
2023/11/16 08:58:47;;;;;;;27.35;24.55;;;691.30;1612.80;;;;;;5065089;28;20036;-66
2023/11/16 09:01:17;;;;;;;42.95;36.90;;;691.90;1561.60;;;;;;5065064;28;20032;-66
2023/11/16 09:03:49;;;;;;;72.03;61.42;;;717.30;1561.60;;;;;;5050297;28;20426;-66
2023/11/16 09:06:16;;;;;;;44.13;39.47;;;742.40;1561.60;;;;;;5047429;28;20051;-67
2023/11/16 09:08:50;;;;;;;43.38;38.90;;;742.40;1536.00;;;;;;5049523;28;20445;-66
2023/11/16 09:11:22;;;;;;;27.45;24.92;;;742.40;1536.00;;;;;;5051195;28;20056;-66
2023/11/16 09:13:48;;;;;;;26.67;24.25;;;691.30;1587.20;;;;;;5051647;28;20078;-67
2023/11/16 09:16:15;;;;;;;33.38;30.35;;;666.00;1638.40;;;;;;5051856;28;20360;-66
2023/11/16 09:18:43;;;;;;;43.38;39.40;;;640.70;1638.40;;;;;;5050163;28;20028;-67
2023/11/16 09:21:09;;;;;;;42.58;38.08;;;640.80;1638.40;;;;;;5050961;28;20025;-67
2023/11/16 09:23:38;;;;;;;39.83;35.92;;;640.40;1638.40;;;;;;5051051;28;20395;-67
2023/11/16 09:26:04;;;;;;;33.38;29.05;;;615.10;1664.00;;;;;;5050559;28;20051;-66
2023/11/16 09:28:35;;;;;;;34.65;31.25;;;615.10;1638.40;;;;;;5050647;28;20162;-67
2023/11/16 09:31:01;;;;;;;16.23;14.63;;;640.20;1612.80;;;;;;5050872;28;20119;-66
2023/11/16 09:33:27;;;;;;;22.75;20.13;;;640.20;1536.00;;;;;;5050512;28;20029;-66
2023/11/16 09:35:54;;;;;;;21.77;19.52;;;640.60;1510.40;;;;;;5050034;28;20037;-67
2023/11/16 09:38:20;;;;;;;11.15;8.80;;;665.60;1510.40;;;;;;5050356;28;20555;-67
2023/11/16 09:40:48;;;;;;;26.85;24.15;;;665.60;1433.60;;;;;;5050283;28;20120;-66
2023/11/16 09:43:17;;;;;;;10.52;9.43;;;640.50;1408.00;;;;;;5052344;28;20033;-68
2023/11/16 09:45:50;;;;;;;9.07;7.63;;;640.10;1459.20;;;;;;5049841;28;20033;-68
2023/11/16 09:48:20;;;;;;;15.63;13.45;;;615.30;1433.60;;;;;;5047567;28;20017;-68
2023/11/16 09:50:53;;;;;;;7.68;5.18;;;665.60;1408.00;;;;;;5050010;28;20090;-67
2023/11/16 09:53:23;;;;;;;9.70;7.25;;;666.20;1356.80;;;;;;5036718;28;20029;-66
2023/11/16 09:55:55;;;;;;;9.48;8.25;;;665.70;1408.00;;;;;;5059662;28;20024;-67
2023/11/16 09:58:25;;;;;;;9.60;8.60;;;640.30;1408.00;;;;;;5066147;28;20561;-67
2023/11/16 10:00:55;;;;;;;107.60;97.20;;;614.40;1484.80;;;;;;5069527;28;20032;-67
2023/11/16 10:03:36;;;;;;;11.70;9.73;;;589.00;1484.80;;;;;;5069521;28;20049;-66
2023/11/16 10:06:06;;;;;;;5.47;3.75;;;563.70;1561.60;;;;;;5069381;28;20032;-66
2023/11/16 10:08:33;;;;;;;7.38;5.05;;;563.20;1612.80;;;;;;5069496;28;20028;-65
2023/11/16 10:11:07;;;;;;;9.32;7.80;;;538.00;1561.60;;;;;;5069660;28;20024;-65
2023/11/16 10:13:35;;;;;;;4.20;2.65;;;537.70;1612.80;;;;;;5069863;28;20043;-67
2023/11/16 10:16:03;;;;;;;5.65;4.30;;;512.50;1689.60;;;;;;5069451;28;20024;-66
2023/11/16 10:18:29;;;;;;;8.80;6.00;;;487.30;1689.60;;;;;;5069617;28;20492;-65
2023/11/16 10:20:55;;;;;;;6.00;3.00;;;486.90;1715.20;;;;;;5069185;28;20039;-65
2023/11/16 10:23:23;;;;;;;38.63;33.40;;;486.50;1740.80;;;;;;5069164;28;20024;-66
2023/11/16 10:25:49;;;;;;;4.97;3.58;;;461.50;1715.20;;;;;;5069438;28;20036;-65
2023/11/16 10:28:22;;;;;;;3.00;1.60;;;461.40;1715.20;;;;;;5069796;28;20096;-65
2023/11/16 10:30:50;;;;;;;2.83;1.30;;;461.20;1689.60;;;;;;5069335;28;20486;-65
2023/11/16 10:33:24;;;;;;;2.03;1.42;;;461.00;1740.80;;;;;;5069270;28;20368;-65
2023/11/16 10:35:52;;;;;;;81.93;54.33;;;460.80;1766.40;;;;;;5050767;28;20025;-65
2023/11/16 10:38:22;;;;;;;18.33;11.25;;;435.90;1689.60;;;;;;5048894;28;20024;-65
2023/11/16 10:40:51;;;;;;;5.35;2.80;;;436.00;1715.20;;;;;;5048712;28;20025;-65
2023/11/16 10:43:30;;;;;;;16.08;10.23;;;435.90;1740.80;;;;;;5049045;28;20025;-65
2023/11/16 10:46:02;;;;;;;16.10;11.23;;;435.70;1792.00;;;;;;5048738;28;20059;-65
2023/11/16 10:48:28;;;;;;;21.73;12.70;;;435.50;1817.60;;;;;;5052966;28;20024;-66
2023/11/16 10:51:00;;;;;;;9.35;6.53;;;435.40;1868.80;;;;;;5052596;28;20258;-66
2023/11/16 10:53:37;;;;;;;18.45;10.95;;;410.50;1868.80;;;;;;5053284;28;20024;-65
2023/11/16 10:56:07;;;;;;;19.88;11.82;;;410.00;1894.40;;;;;;5053571;28;20120;-66
2023/11/16 10:58:34;;;;;;;9.65;6.15;;;410.00;1920.00;;;;;;5053155;28;20503;-65
2023/11/16 11:01:02;;;;;;;23.50;13.75;;;410.20;1920.00;;;;;;5053251;28;20036;-66
2023/11/16 11:03:28;;;;;;;6.82;4.53;;;410.00;1945.60;;;;;;5053415;28;20041;-65
2023/11/16 11:05:57;;;;;;;13.63;9.05;;;409.90;1868.80;;;;;;5053072;28;20487;-66
2023/11/16 11:08:38;;;;;;;17.35;9.63;;;410.00;1920.00;;;;;;5053782;28;20017;-66
2023/11/16 11:11:07;;;;;;;10.20;6.47;;;410.00;1894.40;;;;;;5053064;28;20494;-65
2023/11/16 11:13:33;;;;;;;9.85;4.78;;;409.80;1894.40;;;;;;5053157;28;20032;-65
2023/11/16 11:16:07;;;;;;;15.38;8.60;;;409.90;1920.00;;;;;;5052582;28;20021;-65
2023/11/16 11:18:44;;;;;;;16.10;8.40;;;409.80;1945.60;;;;;;5052480;28;20103;-66
2023/11/16 11:21:10;;;;;;;9.38;4.32;;;409.70;1945.60;;;;;;5052730;28;20027;-64
2023/11/16 11:23:40;;;;;;;12.43;7.63;;;409.60;1920.00;;;;;;5052255;28;20391;-64
2023/11/16 11:26:07;;;;;;;48.97;31.40;;;384.90;1920.00;;;;;;5052360;28;20537;-65
2023/11/16 11:28:38;;;;;;;12.30;9.88;;;409.70;1920.00;;;;;;5052670;28;20627;-66
2023/11/16 11:31:04;;;;;;;6.15;3.72;;;409.70;1920.00;;;;;;5052474;28;20098;-65
2023/11/16 11:33:37;;;;;;;17.67;10.80;;;384.90;1920.00;;;;;;5052201;28;20035;-65
2023/11/16 11:36:08;;;;;;;13.98;6.97;;;384.70;1971.20;;;;;;5052319;28;20095;-64
2023/11/16 11:38:38;;;;;;;19.00;10.05;;;384.80;1996.80;;;;;;5052067;28;20029;-64
2023/11/16 11:41:08;;;;;;;12.30;6.72;;;384.80;1996.80;;;;;;5052188;28;20091;-65
2023/11/16 11:43:38;;;;;;;14.63;8.65;;;384.80;1996.80;;;;;;5052616;28;20025;-65
2023/11/16 11:46:08;;;;;;;12.15;7.15;;;384.90;2022.40;;;;;;5052287;28;20068;-65
2023/11/16 11:48:35;;;;;;;12.45;6.13;;;409.60;2048.00;;;;;;5052362;28;20032;-66
2023/11/16 11:51:04;;;;;;;19.27;10.63;;;409.60;2048.00;;;;;;5052600;28;20033;-66
2023/11/16 11:53:32;;;;;;;23.02;12.52;;;409.70;2022.40;;;;;;5052449;28;20021;-65
2023/11/16 11:56:06;;;;;;;19.08;11.63;;;409.70;2048.00;;;;;;5052423;28;20029;-65
2023/11/16 11:58:39;;;;;;;19.85;14.02;;;409.70;2048.00;;;;;;5051922;28;20029;-67
2023/11/16 12:01:08;;;;;;;25.67;18.95;;;409.80;2073.60;;;;;;5052389;28;20430;-66
2023/11/16 12:03:35;;;;;;;12.77;7.25;;;409.60;2048.00;;;;;;5052905;28;20067;-66
2023/11/16 12:06:02;;;;;;;17.48;10.40;;;384.90;1971.20;;;;;;5052917;28;20044;-67
2023/11/16 12:08:40;;;;;;;19.63;10.45;;;409.70;2022.40;;;;;;5054788;28;20027;-65
2023/11/16 12:11:09;;;;;;;16.60;11.07;;;409.60;2022.40;;;;;;5051991;28;20017;-65